createdAt,value
2018-02-03T00:00:20.048Z,99773.09
2018-02-03T00:02:47.547Z,99771.63
2018-02-03T00:05:14.951Z,99770.32
2018-02-03T00:07:42.342Z,99770.50
2018-02-03T00:10:09.734Z,99774.83
2018-02-03T00:12:37.138Z,99776.94
2018-02-03T00:15:04.527Z,99774.06
2018-02-03T00:17:31.951Z,99773.26
2018-02-03T00:19:59.338Z,99773.75
2018-02-03T00:22:26.737Z,99777.45
2018-02-03T00:24:54.154Z,99769.66
2018-02-03T00:27:21.563Z,99772.88
2018-02-03T00:29:48.984Z,99774.24
2018-02-03T00:32:16.382Z,99773.08
2018-02-03T00:34:43.774Z,99767.67
2018-02-03T00:37:11.220Z,99764.52
2018-02-03T00:39:38.618Z,99771.30
2018-02-03T00:42:06.004Z,99773.59
2018-02-03T00:44:33.393Z,99771.78
2018-02-03T00:47:00.830Z,99775.45
2018-02-03T00:49:28.230Z,99773.44
2018-02-03T00:51:55.722Z,99773.95
2018-02-03T00:54:23.123Z,99774.32
2018-02-03T00:56:50.530Z,99772.55
2018-02-03T00:59:17.919Z,99769.89
2018-02-03T01:01:45.327Z,99767.55
2018-02-03T01:04:12.725Z,99769.21
2018-02-03T01:06:40.133Z,99777.88
2018-02-03T01:09:07.739Z,99773.11
2018-02-03T01:11:35.175Z,99773.43
2018-02-03T01:14:02.611Z,99769.30
2018-02-03T01:16:30.230Z,99775.68
2018-02-03T01:18:57.632Z,99776.62
2018-02-03T01:21:25.063Z,99785.89
2018-02-03T01:23:52.494Z,99793.42
2018-02-03T01:26:19.894Z,99788.31
2018-02-03T01:28:47.317Z,99789.41
2018-02-03T01:31:14.797Z,99792.10
2018-02-03T01:33:42.206Z,99793.45
2018-02-03T01:36:09.679Z,99795.76
2018-02-03T01:38:37.095Z,99791.85
2018-02-03T01:41:04.506Z,99794.87
2018-02-03T01:43:31.882Z,99797.28
2018-02-03T01:45:59.289Z,99796.78
2018-02-03T01:48:26.708Z,99793.36
2018-02-03T01:50:54.202Z,99782.73
2018-02-03T01:53:21.607Z,99785.51
2018-02-03T01:55:49.002Z,99785.77
2018-02-03T01:58:16.438Z,99789.41
2018-02-03T02:00:43.858Z,99799.66
2018-02-03T02:03:11.248Z,99794.74
2018-02-03T02:05:38.654Z,99794.11
2018-02-03T02:08:06.051Z,99791.92
2018-02-03T02:10:33.477Z,99791.69
2018-02-03T02:13:00.892Z,99791.91
2018-02-03T02:15:28.282Z,99801.81
2018-02-03T02:17:55.701Z,99800.65
2018-02-03T02:20:23.123Z,99802.92
2018-02-03T02:22:50.531Z,99808.13
2018-02-03T02:25:17.923Z,99804.06
2018-02-03T02:27:45.329Z,99803.17
2018-02-03T02:30:12.710Z,99797.09
2018-02-03T02:32:40.118Z,99803.80
2018-02-03T02:35:07.619Z,99801.09
2018-02-03T02:37:35.031Z,99798.23
2018-02-03T02:40:02.435Z,99806.76
2018-02-03T02:42:29.842Z,99805.66
2018-02-03T02:44:57.247Z,99803.73
2018-02-03T02:47:24.659Z,99801.95
2018-02-03T02:49:52.055Z,99808.44
2018-02-03T02:52:19.462Z,99804.48
2018-02-03T02:54:46.861Z,99803.28
2018-02-03T02:57:14.265Z,99816.13
2018-02-03T02:59:41.642Z,99818.42
2018-02-03T03:02:09.062Z,99814.92
2018-02-03T03:04:36.460Z,99811.09
2018-02-03T03:07:03.874Z,99812.64
2018-02-03T03:09:31.267Z,99813.95
2018-02-03T03:11:58.652Z,99815.47
2018-02-03T03:14:26.104Z,99811.70
2018-02-03T03:16:53.482Z,99806.99
2018-02-03T03:19:20.905Z,99807.06
2018-02-03T03:21:48.370Z,99801.49
2018-02-03T03:24:15.793Z,99796.21
2018-02-03T03:26:43.226Z,99803.59
2018-02-03T03:29:10.611Z,99804.11
2018-02-03T03:31:38.022Z,99804.57
2018-02-03T03:34:05.471Z,99801.91
2018-02-03T03:36:32.862Z,99798.51
2018-02-03T03:39:00.346Z,99804.78
2018-02-03T03:41:27.738Z,99804.36
2018-02-03T03:43:55.229Z,99801.63
2018-02-03T03:46:22.615Z,99798.23
2018-02-03T03:48:50.122Z,99807.18
2018-02-03T03:51:17.511Z,99803.24
2018-02-03T03:53:44.953Z,99802.98
2018-02-03T03:56:12.351Z,99809.43
2018-02-03T03:58:39.848Z,99812.45
2018-02-03T04:01:07.248Z,99807.64
2018-02-03T04:03:34.677Z,99813.39
2018-02-03T04:06:02.115Z,99811.77
2018-02-03T04:08:29.518Z,99810.48
2018-02-03T04:10:56.914Z,99810.37
2018-02-03T04:13:24.325Z,99814.39
2018-02-03T04:15:51.735Z,99814.91
2018-02-03T04:18:19.127Z,99811.66
2018-02-03T04:20:46.547Z,99813.14
2018-02-03T04:23:13.946Z,99813.88
2018-02-03T04:25:41.342Z,99817.73
2018-02-03T04:28:08.744Z,99815.64
2018-02-03T04:30:36.140Z,99816.02
2018-02-03T04:33:03.530Z,99816.33
2018-02-03T04:35:30.954Z,99824.05
2018-02-03T04:37:58.557Z,99823.55
2018-02-03T04:40:25.974Z,99820.15
2018-02-03T04:42:53.345Z,99822.39
2018-02-03T04:45:20.766Z,99823.45
2018-02-03T04:47:48.166Z,99816.55
2018-02-03T04:50:15.570Z,99811.37
2018-02-03T04:52:42.969Z,99823.98
2018-02-03T04:55:10.376Z,99818.48
2018-02-03T04:57:37.767Z,99819.22
2018-02-03T05:00:05.176Z,99821.72
2018-02-03T05:02:32.566Z,99819.34
2018-02-03T05:04:59.947Z,99818.66
2018-02-03T05:07:27.346Z,99821.54
2018-02-03T05:09:54.748Z,99820.63
2018-02-03T05:12:22.149Z,99821.05
2018-02-03T05:14:49.538Z,99816.62
2018-02-03T05:17:17.279Z,99811.39
2018-02-03T05:19:44.677Z,99815.64
2018-02-03T05:22:12.068Z,99811.25
2018-02-03T05:24:39.471Z,99813.34
2018-02-03T05:27:06.933Z,99809.38
2018-02-03T05:29:34.319Z,99809.28
2018-02-03T05:32:01.714Z,99808.66
2018-02-03T05:34:29.108Z,99807.41
2018-02-03T05:36:56.518Z,99805.20
2018-02-03T05:39:23.921Z,99809.48
2018-02-03T05:41:51.316Z,99803.63
2018-02-03T05:44:21.970Z,99808.34
2018-02-03T05:46:49.368Z,99799.20
2018-02-03T05:49:16.754Z,99800.08
2018-02-03T05:51:44.253Z,99802.27
2018-02-03T05:54:11.638Z,99798.62
2018-02-03T05:56:39.052Z,99794.64
2018-02-03T05:59:06.513Z,99790.25
2018-02-03T06:01:33.936Z,99790.94
2018-02-03T06:04:01.335Z,99792.92
2018-02-03T06:06:28.849Z,99791.98
2018-02-03T06:08:56.237Z,99794.69
2018-02-03T06:11:23.631Z,99790.88
2018-02-03T06:13:51.034Z,99797.31
2018-02-03T06:16:18.427Z,99801.58
2018-02-03T06:18:45.847Z,99807.27
2018-02-03T06:21:13.242Z,99807.31
2018-02-03T06:23:40.647Z,99815.86
2018-02-03T06:26:08.034Z,99799.70
2018-02-03T06:28:35.443Z,99806.67
2018-02-03T06:31:02.975Z,99796.91
2018-02-03T06:33:30.382Z,99801.28
2018-02-03T06:35:57.772Z,99804.05
2018-02-03T06:38:25.195Z,99804.61
2018-02-03T06:40:52.599Z,99813.62
2018-02-03T06:43:20.022Z,99811.89
2018-02-03T06:45:47.419Z,99819.63
2018-02-03T06:48:14.842Z,99818.20
2018-02-03T06:50:42.246Z,99812.37
2018-02-03T06:53:09.634Z,99816.69
2018-02-03T06:55:37.025Z,99818.94
2018-02-03T06:58:04.450Z,99828.03
2018-02-03T07:00:31.867Z,99824.83
2018-02-03T07:02:59.262Z,99825.50
2018-02-03T07:05:26.677Z,99832.40
2018-02-03T07:07:54.107Z,99845.03
2018-02-03T07:10:21.495Z,99846.39
2018-02-03T07:12:48.889Z,99843.23
2018-02-03T07:15:16.290Z,99846.87
2018-02-03T07:17:43.691Z,99846.47
2018-02-03T07:20:11.078Z,99841.95
2018-02-03T07:22:38.622Z,99838.17
2018-02-03T07:25:06.042Z,99839.58
2018-02-03T07:27:33.443Z,99843.52
2018-02-03T07:30:00.863Z,99842.04
2018-02-03T07:32:28.274Z,99841.16
2018-02-03T07:34:55.693Z,99848.03
2018-02-03T07:37:23.082Z,99840.20
2018-02-03T07:39:50.477Z,99834.91
2018-02-03T07:42:17.867Z,99833.22
2018-02-03T07:44:45.340Z,99834.36
2018-02-03T07:47:12.733Z,99833.25
2018-02-03T07:49:40.171Z,99833.23
2018-02-03T07:52:07.561Z,99838.30
2018-02-03T07:54:34.951Z,99837.78
2018-02-03T07:57:02.357Z,99838.39
2018-02-03T07:59:29.741Z,99838.74
2018-02-03T08:01:57.148Z,99839.61
2018-02-03T08:04:24.535Z,99846.04
2018-02-03T08:06:51.935Z,99841.81
2018-02-03T08:09:19.322Z,99841.51
2018-02-03T08:11:47.780Z,99847.39
2018-02-03T08:14:15.239Z,99845.47
2018-02-03T08:16:42.742Z,99846.47
2018-02-03T08:19:10.139Z,99836.90
2018-02-03T08:21:37.551Z,99839.56
2018-02-03T08:24:04.948Z,99845.78
2018-02-03T08:26:32.346Z,99841.53
2018-02-03T08:29:00.716Z,99840.11
2018-02-03T08:31:29.987Z,99841.75
2018-02-03T08:33:57.522Z,99839.45
2018-02-03T08:36:24.935Z,99841.04
2018-02-03T08:38:52.323Z,99829.06
2018-02-03T08:41:19.724Z,99824.94
2018-02-03T08:43:47.124Z,99823.25
2018-02-03T08:46:14.532Z,99831.80
2018-02-03T08:48:41.906Z,99833.73
2018-02-03T08:51:09.322Z,99825.72
2018-02-03T08:53:36.718Z,99821.14
2018-02-03T08:56:04.127Z,99826.71
2018-02-03T08:58:31.566Z,99827.70
2018-02-03T09:00:58.991Z,99821.34
2018-02-03T09:03:26.379Z,99817.64
2018-02-03T09:05:53.762Z,99821.78
2018-02-03T09:08:21.176Z,99826.20
2018-02-03T09:10:48.574Z,99830.03
2018-02-03T09:13:15.979Z,99836.48
2018-02-03T09:15:43.374Z,99830.11
2018-02-03T09:18:10.776Z,99834.84
2018-02-03T09:20:38.185Z,99834.52
2018-02-03T09:23:05.574Z,99837.84
2018-02-03T09:25:32.979Z,99838.44
2018-02-03T09:28:00.426Z,99840.95
2018-02-03T09:30:27.812Z,99847.77
2018-02-03T09:32:55.223Z,99842.55
2018-02-03T09:35:22.602Z,99845.17
2018-02-03T09:37:50.023Z,99835.64
2018-02-03T09:40:17.399Z,99838.58
2018-02-03T09:42:44.823Z,99844.23
2018-02-03T09:45:12.236Z,99828.45
2018-02-03T09:47:39.658Z,99828.75
2018-02-03T09:50:07.047Z,99823.59
2018-02-03T09:52:34.452Z,99820.77
2018-02-03T09:55:01.894Z,99824.92
2018-02-03T09:57:29.282Z,99825.11
2018-02-03T09:59:56.678Z,99820.48
2018-02-03T10:02:24.078Z,99818.67
2018-02-03T10:04:51.483Z,99825.83
2018-02-03T10:07:18.963Z,99824.61
2018-02-03T10:09:46.382Z,99823.09
2018-02-03T10:12:13.783Z,99819.80
2018-02-03T10:14:41.200Z,99813.81
2018-02-03T10:17:08.567Z,99820.34
2018-02-03T10:19:35.958Z,99821.31
2018-02-03T10:22:03.333Z,99820.06
2018-02-03T10:24:30.723Z,99824.16
2018-02-03T10:26:58.109Z,99815.25
2018-02-03T10:29:25.498Z,99818.31
2018-02-03T10:31:52.933Z,99814.38
2018-02-03T10:34:20.273Z,99819.20
2018-02-03T10:36:47.662Z,99825.23
2018-02-03T10:39:15.071Z,99820.66
2018-02-03T10:41:42.467Z,99827.57
2018-02-03T10:44:09.845Z,99818.81
2018-02-03T10:46:37.314Z,99820.83
2018-02-03T10:49:04.700Z,99822.92
2018-02-03T10:51:32.089Z,99818.75
2018-02-03T10:53:59.482Z,99811.25
2018-02-03T10:56:26.946Z,99803.81
2018-02-03T10:58:54.334Z,99813.06
2018-02-03T11:01:21.727Z,99810.15
2018-02-03T11:03:49.112Z,99803.39
2018-02-03T11:06:16.512Z,99802.11
2018-02-03T11:08:43.919Z,99806.73
2018-02-03T11:11:11.302Z,99805.95
2018-02-03T11:13:38.715Z,99804.43
2018-02-03T11:16:06.106Z,99809.03
2018-02-03T11:18:33.494Z,99812.38
2018-02-03T11:21:00.895Z,99810.73
2018-02-03T11:23:28.279Z,99810.03
2018-02-03T11:25:55.673Z,99815.64
2018-02-03T11:28:23.132Z,99814.91
2018-02-03T11:30:50.637Z,99810.68
2018-02-03T11:33:18.022Z,99812.81
2018-02-03T11:35:45.416Z,99806.09
2018-02-03T11:38:12.807Z,99807.03
2018-02-03T11:40:40.191Z,99797.94
2018-02-03T11:43:07.601Z,99807.51
2018-02-03T11:45:34.978Z,99810.02
2018-02-03T11:48:02.410Z,99805.59
2018-02-03T11:50:29.818Z,99809.83
2018-02-03T11:52:57.193Z,99814.67
2018-02-03T11:55:24.591Z,99803.89
2018-02-03T11:57:51.979Z,99806.38
2018-02-03T12:00:19.385Z,99804.94
2018-02-03T12:02:46.831Z,99800.85
2018-02-03T12:05:14.206Z,99805.09
2018-02-03T12:07:41.620Z,99805.06
2018-02-03T12:10:09.008Z,99806.27
2018-02-03T12:12:36.390Z,99809.85
2018-02-03T12:15:03.786Z,99808.28
2018-02-03T12:17:31.181Z,99799.73
2018-02-03T12:19:58.554Z,99796.72
2018-02-03T12:22:26.051Z,99801.27
2018-02-03T12:24:53.522Z,99804.24
2018-02-03T12:27:20.915Z,99800.15
2018-02-03T12:29:48.394Z,99798.50
2018-02-03T12:32:15.875Z,99800.48
2018-02-03T12:34:44.070Z,99799.23
2018-02-03T12:37:11.446Z,99793.97
2018-02-03T12:39:38.833Z,99796.83
2018-02-03T12:42:06.219Z,99796.63
2018-02-03T12:44:33.617Z,99796.34
2018-02-03T12:47:00.994Z,99796.55
2018-02-03T12:49:28.411Z,99792.41
2018-02-03T12:51:55.791Z,99791.11
2018-02-03T12:54:23.265Z,99792.66
2018-02-03T12:56:50.652Z,99785.55
2018-02-03T12:59:18.057Z,99786.55
2018-02-03T13:01:45.459Z,99788.43
2018-02-03T13:04:12.862Z,99793.55
2018-02-03T13:06:40.262Z,99796.50
2018-02-03T13:09:07.683Z,99792.18
2018-02-03T13:11:35.063Z,99787.46
2018-02-03T13:14:02.466Z,99793.00
2018-02-03T13:16:29.854Z,99801.50
2018-02-03T13:18:57.326Z,99797.41
2018-02-03T13:21:24.718Z,99793.34
2018-02-03T13:23:52.116Z,99801.25
2018-02-03T13:26:19.523Z,99807.63
2018-02-03T13:28:46.914Z,99801.78
2018-02-03T13:31:14.411Z,99804.45
2018-02-03T13:33:41.791Z,99804.49
2018-02-03T13:36:09.191Z,99809.05
2018-02-03T13:38:36.674Z,99808.88
2018-02-03T13:41:04.045Z,99808.34
2018-02-03T13:43:31.443Z,99802.72
2018-02-03T13:45:58.838Z,99808.23
2018-02-03T13:48:26.238Z,99805.28
2018-02-03T13:50:53.614Z,99799.16
2018-02-03T13:53:21.018Z,99805.86
2018-02-03T13:55:48.428Z,99811.66
2018-02-03T13:58:15.817Z,99810.07
2018-02-03T14:00:43.205Z,99815.43
2018-02-03T14:03:10.603Z,99811.99
2018-02-03T14:05:38.015Z,99813.53
2018-02-03T14:08:06.166Z,99820.27
2018-02-03T14:10:34.081Z,99815.35
2018-02-03T14:13:01.474Z,99807.08
2018-02-03T14:15:28.929Z,99812.12
2018-02-03T14:17:56.379Z,99813.59
2018-02-03T14:20:23.850Z,99810.47
2018-02-03T14:22:51.235Z,99811.29
2018-02-03T14:25:18.618Z,99808.57
2018-02-03T14:27:46.019Z,99812.24
2018-02-03T14:30:13.458Z,99808.45
2018-02-03T14:32:40.842Z,99812.94
2018-02-03T14:35:08.248Z,99814.71
2018-02-03T14:37:35.635Z,99816.86
2018-02-03T14:40:03.046Z,99816.42
2018-02-03T14:42:30.434Z,99812.97
2018-02-03T14:44:57.829Z,99811.63
2018-02-03T14:47:25.206Z,99808.70
2018-02-03T14:49:52.606Z,99805.89
2018-02-03T14:52:19.994Z,99808.23
2018-02-03T14:54:47.431Z,99812.41
2018-02-03T14:57:14.835Z,99815.70
2018-02-03T14:59:42.447Z,99816.11
2018-02-03T15:02:09.877Z,99819.68
2018-02-03T15:04:37.452Z,99818.31
2018-02-03T15:07:04.925Z,99819.36
2018-02-03T15:09:32.296Z,99819.94
2018-02-03T15:11:59.718Z,99821.60
2018-02-03T15:14:27.102Z,99826.83
2018-02-03T15:16:54.490Z,99826.40
2018-02-03T15:19:21.935Z,99824.15
2018-02-03T15:21:49.310Z,99822.23
2018-02-03T15:24:16.751Z,99825.82
2018-02-03T15:26:44.266Z,99823.91
2018-02-03T15:29:11.642Z,99816.77
2018-02-03T15:31:39.045Z,99819.72
2018-02-03T15:34:06.422Z,99822.81
2018-02-03T15:36:33.851Z,99829.45
2018-02-03T15:39:01.337Z,99832.00
2018-02-03T15:41:28.732Z,99823.40
2018-02-03T15:43:56.155Z,99826.33
2018-02-03T15:46:23.545Z,99833.41
2018-02-03T15:48:50.921Z,99835.08
2018-02-03T15:51:18.367Z,99837.64
2018-02-03T15:53:45.743Z,99840.39
2018-02-03T15:56:13.155Z,99838.48
2018-02-03T15:58:40.542Z,99834.66
2018-02-03T16:01:08.028Z,99837.97
2018-02-03T16:03:35.411Z,99846.08
2018-02-03T16:06:02.810Z,99849.57
2018-02-03T16:08:30.223Z,99855.71
2018-02-03T16:10:57.600Z,99855.66
2018-02-03T16:13:25.000Z,99852.81
2018-02-03T16:15:52.396Z,99853.27
2018-02-03T16:18:19.803Z,99858.69
2018-02-03T16:20:47.224Z,99859.22
2018-02-03T16:23:14.616Z,99858.56
2018-02-03T16:25:42.002Z,99866.09
2018-02-03T16:28:09.412Z,99866.89
2018-02-03T16:30:36.875Z,99866.38
2018-02-03T16:33:04.266Z,99872.66
2018-02-03T16:35:31.641Z,99871.41
2018-02-03T16:37:59.082Z,99869.03
2018-02-03T16:40:26.466Z,99870.70
2018-02-03T16:42:53.876Z,99872.47
2018-02-03T16:45:21.450Z,99878.11
2018-02-03T16:47:48.850Z,99881.19
2018-02-03T16:50:16.254Z,99884.97
2018-02-03T16:52:43.646Z,99886.02
2018-02-03T16:55:11.035Z,99894.13
2018-02-03T16:57:38.458Z,99893.99
2018-02-03T17:00:05.938Z,99893.50
2018-02-03T17:02:33.308Z,99898.63
2018-02-03T17:05:00.739Z,99902.23
2018-02-03T17:07:28.214Z,99898.50
2018-02-03T17:09:55.605Z,99902.72
2018-02-03T17:12:23.002Z,99912.64
2018-02-03T17:14:50.428Z,99917.82
2018-02-03T17:17:17.814Z,99919.50
2018-02-03T17:19:45.208Z,99932.29
2018-02-03T17:22:12.602Z,99927.77
2018-02-03T17:24:40.008Z,99923.08
2018-02-03T17:27:07.416Z,99923.33
2018-02-03T17:29:34.794Z,99927.69
2018-02-03T17:32:02.195Z,99928.58
2018-02-03T17:34:29.607Z,99924.67
2018-02-03T17:37:02.694Z,99928.53
2018-02-03T17:39:30.103Z,99933.20
2018-02-03T17:41:57.491Z,99935.77
2018-02-03T17:44:24.907Z,99938.75
2018-02-03T17:46:58.043Z,99940.05
2018-02-03T17:49:25.451Z,99936.09
2018-02-03T17:51:52.845Z,99936.44
2018-02-03T17:54:20.799Z,99942.14
2018-02-03T17:56:53.897Z,99938.03
2018-02-03T17:59:21.287Z,99935.29
2018-02-03T18:01:48.675Z,99944.78
2018-02-03T18:04:16.087Z,99943.62
2018-02-03T18:06:49.046Z,99947.22
2018-02-03T18:09:16.463Z,99947.61
2018-02-03T18:11:44.014Z,99951.41
2018-02-03T18:14:11.412Z,99958.06
2018-02-03T18:16:38.820Z,99956.08
2018-02-03T18:19:06.186Z,99958.36
2018-02-03T18:21:33.607Z,99966.26
2018-02-03T18:24:00.994Z,99961.71
2018-02-03T18:26:28.407Z,99965.47
2018-02-03T18:28:55.805Z,99966.39
2018-02-03T18:31:23.194Z,99969.87
2018-02-03T18:33:50.610Z,99965.09
2018-02-03T18:38:42.374Z,99976.42
2018-02-03T18:41:09.777Z,99984.69
2018-02-03T18:43:37.167Z,99985.72
2018-02-03T18:46:04.586Z,99990.12
2018-02-03T18:48:31.973Z,99985.87
2018-02-03T18:50:59.450Z,99997.39
2018-02-03T18:53:26.831Z,99995.02
2018-02-03T18:55:54.213Z,99997.06
2018-02-03T18:58:21.600Z,99997.84
2018-02-03T19:00:48.990Z,100000.80
2018-02-03T19:03:16.394Z,99999.27
2018-02-03T19:05:43.807Z,100003.25
2018-02-03T19:08:11.181Z,100003.53
2018-02-03T19:10:38.566Z,100007.83
2018-02-03T19:13:05.982Z,100008.25
2018-02-03T19:15:33.384Z,100008.33
2018-02-03T19:18:00.795Z,100013.45
2018-02-03T19:20:28.283Z,100012.11
2018-02-03T19:22:55.675Z,100017.09
2018-02-03T19:25:23.070Z,100020.11
2018-02-03T19:27:50.474Z,100021.57
2018-02-03T19:30:17.871Z,100025.86
2018-02-03T19:32:45.271Z,100026.80
2018-02-03T19:35:12.663Z,100027.82
2018-02-03T19:37:40.055Z,100026.57
2018-02-03T19:40:07.442Z,100035.38
2018-02-03T19:42:34.831Z,100028.35
2018-02-03T19:45:02.226Z,100033.94
2018-02-03T19:47:29.616Z,100036.38
2018-02-03T19:49:57.011Z,100043.89
2018-02-03T19:52:24.434Z,100043.23
2018-02-03T19:54:51.831Z,100049.55
2018-02-03T19:57:19.234Z,100044.98
2018-02-03T19:59:46.610Z,100052.96
2018-02-03T20:02:14.026Z,100054.65
2018-02-03T20:04:41.408Z,100061.84
2018-02-03T20:07:08.811Z,100064.73
2018-02-03T20:09:36.221Z,100062.55
2018-02-03T20:12:03.597Z,100068.07
2018-02-03T20:14:30.990Z,100074.44
2018-02-03T20:16:58.382Z,100078.29
2018-02-03T20:19:25.775Z,100076.94
2018-02-03T20:21:53.187Z,100089.41
2018-02-03T20:24:20.599Z,100087.92
2018-02-03T20:26:47.986Z,100092.31
2018-02-03T20:29:15.386Z,100094.50
2018-02-03T20:31:42.790Z,100083.28
2018-02-03T20:34:10.235Z,100096.47
2018-02-03T20:36:37.615Z,100100.19
2018-02-03T20:39:05.010Z,100113.42
2018-02-03T20:41:32.423Z,100105.84
2018-02-03T20:43:59.792Z,100115.01
2018-02-03T20:46:27.201Z,100118.45
2018-02-03T20:48:54.607Z,100118.22
2018-02-03T20:51:21.991Z,100120.88
2018-02-03T20:53:49.394Z,100126.57
2018-02-03T20:56:16.785Z,100132.06
2018-02-03T20:58:44.157Z,100138.80
2018-02-03T21:01:11.647Z,100145.81
2018-02-03T21:03:39.067Z,100143.70
2018-02-03T21:06:06.463Z,100145.00
2018-02-03T21:08:33.853Z,100145.81
2018-02-03T21:11:01.266Z,100148.74
2018-02-03T21:13:28.658Z,100151.47
2018-02-03T21:15:56.055Z,100156.45
2018-02-03T21:18:23.455Z,100157.22
2018-02-03T21:20:50.871Z,100163.23
2018-02-03T21:23:18.279Z,100172.33
2018-02-03T21:25:45.683Z,100174.55
2018-02-03T21:28:13.130Z,100181.72
2018-02-03T21:30:40.559Z,100187.95
2018-02-03T21:33:07.955Z,100191.73
2018-02-03T21:35:35.406Z,100190.70
2018-02-03T21:38:02.786Z,100191.81
2018-02-03T21:40:30.240Z,100197.06
2018-02-03T21:42:57.635Z,100199.78
2018-02-03T21:45:25.049Z,100202.55
2018-02-03T21:47:52.429Z,100201.39
2018-02-03T21:50:19.855Z,100205.23
2018-02-03T21:52:47.254Z,100209.16
2018-02-03T21:55:14.639Z,100212.53
2018-02-03T21:57:42.029Z,100215.72
2018-02-03T22:00:09.431Z,100221.28
2018-02-03T22:02:36.845Z,100231.89
2018-02-03T22:05:04.238Z,100230.87
2018-02-03T22:07:32.322Z,100237.09
2018-02-03T22:09:59.711Z,100238.52
2018-02-03T22:12:27.106Z,100243.17
2018-02-03T22:14:54.518Z,100247.12
2018-02-03T22:17:21.915Z,100251.47
2018-02-03T22:19:49.320Z,100251.61
2018-02-03T22:22:16.734Z,100254.70
2018-02-03T22:24:44.138Z,100253.33
2018-02-03T22:27:11.520Z,100251.57
2018-02-03T22:29:38.947Z,100254.41
2018-02-03T22:32:06.522Z,100259.91
2018-02-03T22:34:33.909Z,100264.64
2018-02-03T22:37:01.332Z,100268.09
2018-02-03T22:39:28.784Z,100260.24
2018-02-03T22:41:56.193Z,100265.38
2018-02-03T22:44:23.597Z,100270.11
2018-02-03T22:46:51.007Z,100270.87
2018-02-03T22:49:18.395Z,100271.40
2018-02-03T22:51:45.827Z,100272.55
2018-02-03T22:54:13.285Z,100270.80
2018-02-03T22:56:40.666Z,100277.41
2018-02-03T22:59:08.062Z,100281.80
2018-02-03T23:01:35.555Z,100281.83
2018-02-03T23:04:02.945Z,100285.48
2018-02-03T23:06:30.343Z,100281.36
2018-02-03T23:08:57.790Z,100284.72
2018-02-03T23:11:25.177Z,100283.36
2018-02-03T23:13:52.567Z,100287.27
2018-02-03T23:16:19.958Z,100291.03
2018-02-03T23:18:47.367Z,100297.13
2018-02-03T23:21:14.782Z,100296.00
2018-02-03T23:23:42.198Z,100297.55
2018-02-03T23:26:09.614Z,100301.03
2018-02-03T23:28:37.031Z,100306.17
2018-02-03T23:31:04.422Z,100308.82
2018-02-03T23:33:31.838Z,100309.45
2018-02-03T23:35:59.226Z,100315.71
2018-02-03T23:38:26.625Z,100320.57
2018-02-03T23:40:54.031Z,100322.47
2018-02-03T23:43:21.429Z,100318.86
2018-02-03T23:45:48.833Z,100323.42
2018-02-03T23:48:16.231Z,100318.63
2018-02-03T23:50:43.707Z,100321.58
2018-02-03T23:53:11.118Z,100319.67
2018-02-03T23:55:38.544Z,100323.45
2018-02-03T23:58:05.980Z,100323.69
